Terminal Aerodrome Forecast
Issued by NWS

Home | Current Version | Previous Version | Text Only | Print | Product List | Glossary On
Versions: 1 2 3 4 5 6 7 8 9 10 11 12 13
000
FTUS44 KEWX 271300 AAA
TAFSSF
TAF AMD
KSSF 271336Z 2714/2812 01003KT 3SM -RA BR SCT006 OVC015
     FM271600 36011G17KT 6SM -RA BR OVC012
     FM272100 36017G24KT P6SM OVC022
     FM280300 01015KT P6SM OVC035=

USA.gov is the U.S. government's official web portal to all federal, state and local government web resources and services.